地図

経路データ

SID SEASON NUMBER BASIN SUBBASIN NAME ISO_TIME NATURE LAT LON WMO_WIND WMO_PRES WMO_AGENCY TRACK_TYPE DIST2LAND LANDFALL IFLAG USA_AGENCY USA_ATCF_ID USA_LAT USA_LON USA_RECORD USA_STATUS USA_WIND USA_PRES USA_SSHS USA_R34_NE USA_R34_SE USA_R34_SW USA_R34_NW USA_R50_NE USA_R50_SE USA_R50_SW USA_R50_NW USA_R64_NE USA_R64_SE USA_R64_SW USA_R64_NW USA_POCI USA_ROCI USA_RMW USA_EYE TOKYO_LAT TOKYO_LON TOKYO_GRADE TOKYO_WIND TOKYO_PRES TOKYO_R50_DIR TOKYO_R50_LONG TOKYO_R50_SHORT TOKYO_R30_DIR TOKYO_R30_LONG TOKYO_R30_SHORT TOKYO_LAND CMA_LAT CMA_LON CMA_CAT CMA_WIND CMA_PRES HKO_LAT HKO_LON HKO_CAT HKO_WIND HKO_PRES NEWDELHI_LAT NEWDELHI_LON NEWDELHI_GRADE NEWDELHI_WIND NEWDELHI_PRES NEWDELHI_CI NEWDELHI_DP NEWDELHI_POCI REUNION_LAT REUNION_LON REUNION_TYPE REUNION_WIND REUNION_PRES REUNION_TNUM REUNION_CI REUNION_RMW REUNION_R34_NE REUNION_R34_SE REUNION_R34_SW REUNION_R34_NW REUNION_R50_NE REUNION_R50_SE REUNION_R50_SW REUNION_R50_NW REUNION_R64_NE REUNION_R64_SE REUNION_R64_SW REUNION_R64_NW BOM_LAT BOM_LON BOM_TYPE BOM_WIND BOM_PRES BOM_TNUM BOM_CI BOM_RMW BOM_R34_NE BOM_R34_SE BOM_R34_SW BOM_R34_NW BOM_R50_NE BOM_R50_SE BOM_R50_SW BOM_R50_NW BOM_R64_NE BOM_R64_SE BOM_R64_SW BOM_R64_NW BOM_ROCI BOM_POCI BOM_EYE BOM_POS_METHOD BOM_PRES_METHOD NADI_LAT NADI_LON NADI_CAT NADI_WIND NADI_PRES WELLINGTON_LAT WELLINGTON_LON WELLINGTON_WIND WELLINGTON_PRES DS824_LAT DS824_LON DS824_STAGE DS824_WIND DS824_PRES TD9636_LAT TD9636_LON TD9636_STAGE TD9636_WIND TD9636_PRES TD9635_LAT TD9635_LON TD9635_WIND TD9635_PRES TD9635_ROCI NEUMANN_LAT NEUMANN_LON NEUMANN_CLASS NEUMANN_WIND NEUMANN_PRES MLC_LAT MLC_LON MLC_CLASS MLC_WIND MLC_PRES USA_GUST BOM_GUST BOM_GUST_PER REUNION_GUST REUNION_GUST_PER USA_SEAHGT USA_SEARAD_NE USA_SEARAD_SE USA_SEARAD_SW USA_SEARAD_NW STORM_SPEED STORM_DIR
1889258N12296 1889 24 NA CS NOT_NAMED 1889-09-14 12:00:00 TS 12.0000 -64.4000 spur-merge 158 158 _____________O -1 12.0000 -64.4000 TS 35 12 289
1889258N12296 1889 24 NA CS NOT_NAMED 1889-09-14 15:00:00 TS 12.2003 -64.9998 spur-merge 199 199 _____________P -1 12.2003 -64.9998 TS 35 12 289
1889258N12296 1889 24 NA CS NOT_NAMED 1889-09-14 18:00:00 TS 12.4000 -65.6000 spur-merge 206 204 _____________O -1 12.4000 -65.6000 TS 35 12 289
1889258N12296 1889 24 NA CS NOT_NAMED 1889-09-14 21:00:00 TS 12.5999 -66.2001 spur-merge 223 223 _____________P -1 12.5999 -66.2001 TS 35 12 289
1889258N12296 1889 24 NA CS NOT_NAMED 1889-09-15 00:00:00 TS 12.8000 -66.8000 spur-merge 246 229 _____________O -1 12.8000 -66.8000 TS 35 12 289
1889258N12296 1889 24 NA CS NOT_NAMED 1889-09-15 03:00:00 TS 12.9999 -67.4001 spur-merge 229 219 _____________P -1 12.9999 -67.4001 TS 35 12 289
1889258N12296 1889 24 NA CS NOT_NAMED 1889-09-15 06:00:00 TS 13.2000 -68.0000 spur-merge 219 202 _____________O -1 13.2000 -68.0000 TS 35 12 289
1889258N12296 1889 24 NA CS NOT_NAMED 1889-09-15 09:00:00 TS 13.3999 -68.6001 spur-merge 202 184 _____________P -1 13.3999 -68.6001 TS 37 12 289
1889258N12296 1889 24 NA CS NOT_NAMED 1889-09-15 12:00:00 TS 13.6000 -69.2000 spur-merge 184 180 _____________O -1 13.6000 -69.2000 TS 40 12 289
1889258N12296 1889 24 NA CS NOT_NAMED 1889-09-15 15:00:00 TS 13.7999 -69.8001 spur-merge 190 190 _____________P -1 13.7999 -69.8001 TS 40 12 289
1889258N12296 1889 24 NA CS NOT_NAMED 1889-09-15 18:00:00 TS 14.0000 -70.4000 spur-merge 213 204 _____________O -1 14.0000 -70.4000 TS 40 12 289
1889258N12296 1889 24 NA CS NOT_NAMED 1889-09-15 21:00:00 TS 14.1998 -71.0001 spur-merge 208 206 _____________P -1 14.1998 -71.0001 TS 40 12 289
1889258N12296 1889 24 NA CS NOT_NAMED 1889-09-16 00:00:00 TS 14.4000 -71.6000 spur-merge 223 223 _____________O -1 14.4000 -71.6000 TS 40 12 289
1889258N12296 1889 24 NA CS NOT_NAMED 1889-09-16 03:00:00 TS 14.5998 -72.2001 spur-merge 252 252 _____________P -1 14.5998 -72.2001 TS 40 12 289
1889258N12296 1889 24 NA CS NOT_NAMED 1889-09-16 06:00:00 TS 14.8000 -72.8000 spur-merge 292 292 _____________O -1 14.8000 -72.8000 TS 40 12 289
1889258N12296 1889 24 NA CS NOT_NAMED 1889-09-16 09:00:00 TS 14.9998 -73.4001 spur-merge 338 313 _____________P -1 14.9998 -73.4001 TS 42 12 289
1889258N12296 1889 24 NA CS NOT_NAMED 1889-09-16 12:00:00 TS 15.2000 -74.0000 spur-merge 313 297 _____________O -1 15.2000 -74.0000 TS 45 12 289
1889258N12296 1889 24 NA CS NOT_NAMED 1889-09-16 15:00:00 TS 15.3998 -74.6001 spur-merge 300 278 _____________P -1 15.3998 -74.6001 TS 45 12 289
1889258N12296 1889 24 NA CS NOT_NAMED 1889-09-16 18:00:00 TS 15.6000 -75.2000 spur-merge 278 238 _____________O -1 15.6000 -75.2000 TS 45 12 289
1889258N12296 1889 24 NA CS NOT_NAMED 1889-09-16 21:00:00 TS 15.7923 -75.8002 spur-merge 238 208 _____________P -1 15.7923 -75.8002 TS 45 12 289
1889258N12296 1889 24 NA CS NOT_NAMED 1889-09-17 00:00:00 TS 16.0000 -76.4000 spur-merge 208 169 _____________O -1 16.0000 -76.4000 TS 45 12 292
1889258N12296 1889 24 NA CS NOT_NAMED 1889-09-17 03:00:00 TS 16.2497 -76.9851 spur-merge 169 138 _____________P -1 16.2497 -76.9851 TS 47 13 293
1889258N12296 1889 24 NA CS NOT_NAMED 1889-09-17 06:00:00 TS 16.5000 -77.6000 spur-merge 140 138 _____________O -1 16.5000 -77.6000 TS 50 13 290
1889258N12296 1889 24 NA CS NOT_NAMED 1889-09-17 09:00:00 TS 16.7074 -78.2852 spur-merge 148 143 _____________P -1 16.7074 -78.2852 TS 52 14 287
1889258N12296 1889 24 NA CS NOT_NAMED 1889-09-17 12:00:00 TS 16.9000 -79.0000 spur-merge 158 158 _____________O -1 16.9000 -79.0000 TS 55 14 286
1889258N12296 1889 24 NA CS NOT_NAMED 1889-09-17 15:00:00 TS 17.0923 -79.7002 spur-merge 184 184 _____________P -1 17.0923 -79.7002 TS 57 14 287
1889258N12296 1889 24 NA CS NOT_NAMED 1889-09-17 18:00:00 TS 17.3000 -80.4000 spur-merge 234 234 _____________O -1 17.3000 -80.4000 TS 60 14 289
1889258N12296 1889 24 NA CS NOT_NAMED 1889-09-17 21:00:00 TS 17.5423 -81.1001 spur-merge 296 293 _____________P -1 17.5423 -81.1001 TS 60 14 291
1889258N12296 1889 24 NA CS NOT_NAMED 1889-09-18 00:00:00 TS 17.8000 -81.8000 spur-merge 327 311 _____________O -1 17.8000 -81.8000 TS 60 14 291
1889258N12296 1889 24 NA CS NOT_NAMED 1889-09-18 03:00:00 TS 18.0497 -82.5002 spur-merge 311 302 _____________P -1 18.0497 -82.5002 TS 62 14 291
1889258N12296 1889 24 NA CS NOT_NAMED 1889-09-18 06:00:00 TS 18.3000 -83.2000 spur-merge 303 299 _____________O -1 18.3000 -83.2000 HU 65 14 291
1889258N12296 1889 24 NA CS NOT_NAMED 1889-09-18 09:00:00 TS 18.5573 -83.9076 spur-merge 313 304 _____________P -1 18.5573 -83.9076 HU 70 14 291
1889258N12296 1889 24 NA CS NOT_NAMED 1889-09-18 12:00:00 TS 18.8000 -84.6000 spur-merge 304 237 _____________O -1 18.8000 -84.6000 HU 75 14 290
1889258N12296 1889 24 NA CS NOT_NAMED 1889-09-18 15:00:00 TS 19.0147 -85.2577 spur-merge 227 160 _____________P -1 19.0147 -85.2577 HU 87 13 288
1889258N12296 1889 24 NA CS NOT_NAMED 1889-09-18 18:00:00 NR 19.2000 -85.9000 spur-merge 160 95 _____________O -1 19.2000 -85.9000 MH 100 13 287
1889258N12296 1889 24 NA CS NOT_NAMED 1889-09-18 21:00:00 NR 19.3873 -86.5573 spur-merge 84 20 _____________P -1 19.3873 -86.5573 MH 100 13 284
1889258N12296 1889 24 NA CS NOT_NAMED 1889-09-19 00:00:00 NR 19.5000 -87.2000 spur-merge 20 0 _____________O -1 19.5000 -87.2000 MH 100 12 274
1889258N12296 1889 24 NA NA NOT_NAMED 1889-09-19 03:00:00 NR 19.4799 -87.8228 spur-merge 0 0 _____________P -1 19.4799 -87.8228 MH 100 11 265
1889258N12296 1889 24 NA NA NOT_NAMED 1889-09-19 06:00:00 NR 19.4000 -88.4000 spur-merge 0 0 _____________O -1 19.4000 -88.4000 MH 100 10 263
1889258N12296 1889 24 NA NA NOT_NAMED 1889-09-19 09:00:00 NR 19.3572 -88.9149 spur-merge 0 0 _____________P -1 19.3572 -88.9149 MH 92 9 264
1889258N12296 1889 24 NA NA NOT_NAMED 1889-09-19 12:00:00 TS 19.3000 -89.4000 spur-merge 0 0 _____________O -1 19.3000 -89.4000 HU 85 10 261
1889258N12296 1889 24 NA NA NOT_NAMED 1889-09-19 15:00:00 TS 19.2075 -89.9150 spur-merge 0 0 _____________P -1 19.2075 -89.9150 HU 75 10 258
1889258N12296 1889 24 NA NA NOT_NAMED 1889-09-19 18:00:00 TS 19.1000 -90.4000 spur-merge 0 0 _____________O -1 19.1000 -90.4000 HU 65 9 256
1889258N12296 1889 24 NA NA NOT_NAMED 1889-09-19 21:00:00 TS 18.9924 -90.8300 spur-merge 0 0 _____________P -1 18.9924 -90.8300 HU 67 8 255
1889258N12296 1889 24 NA NA NOT_NAMED 1889-09-20 00:00:00 TS 18.9000 -91.2000 spur-merge 0 0 _____________O -1 18.9000 -91.2000 HU 70 7 255
1889258N12296 1889 24 NA GM NOT_NAMED 1889-09-20 03:00:00 TS 18.8199 -91.5150 spur-merge 0 0 _____________P -1 18.8199 -91.5150 HU 77 6 260
1889258N12296 1889 24 NA GM NOT_NAMED 1889-09-20 06:00:00 TS 18.8000 -91.8000 spur-merge 24 22 _____________O -1 18.8000 -91.8000 HU 85 6 274
1889258N12296 1889 24 NA GM NOT_NAMED 1889-09-20 09:00:00 TS 18.8550 -92.1000 spur-merge 33 33 _____________P -1 18.8550 -92.1000 HU 85 6 289
1889258N12296 1889 24 NA GM NOT_NAMED 1889-09-20 12:00:00 TS 19.0000 -92.4000 spur-merge 44 44 _____________O -1 19.0000 -92.4000 HU 85 6 302
1889258N12296 1889 24 NA GM NOT_NAMED 1889-09-20 15:00:00 TS 19.1973 -92.6704 spur-merge 67 67 _____________P -1 19.1973 -92.6704 HU 85 8 311
1889258N12296 1889 24 NA GM NOT_NAMED 1889-09-20 18:00:00 TS 19.5000 -93.0000 spur-merge 105 105 _____________O -1 19.5000 -93.0000 HU 85 10 312
1889258N12296 1889 24 NA GM NOT_NAMED 1889-09-20 21:00:00 TS 19.8978 -93.4923 spur-merge 167 167 _____________P -1 19.8978 -93.4923 HU 85 13 314
1889258N12296 1889 24 NA GM NOT_NAMED 1889-09-21 00:00:00 TS 20.4000 -94.0000 spur-merge 226 226 _____________O -1 20.4000 -94.0000 HU 85 14 322
1889258N12296 1889 24 NA GM NOT_NAMED 1889-09-21 03:00:00 TS 20.9774 -94.4025 spur-merge 241 239 _____________P -1 20.9774 -94.4025 HU 85 14 331
1889258N12296 1889 24 NA GM NOT_NAMED 1889-09-21 06:00:00 TS 21.6000 -94.7000 spur-merge 258 250 _____________O -1 21.6000 -94.7000 HU 85 13 337
1889258N12296 1889 24 NA GM NOT_NAMED 1889-09-21 09:00:00 TS 22.2073 -94.9545 spur-merge 246 246 _____________P -1 22.2075 -94.8825 HU 82 12 347
1889258N12296 1889 24 NA GM NOT_NAMED 1889-09-21 12:00:00 TS 22.8000 -95.0000 spur-merge 272 _____________O -1 22.8000 -95.0000 HU 80 12 357

IBTrACS Databaseについて

本データベースは、米国NOAAが公開する1842年以降の世界の熱帯低気圧のベストトラックデータアーカイブInternational Best Track Archive for Climate Stewardship (IBTrACS)を、ウェブで閲覧しやすい形式に変換したものです。

最終更新日:2021-10-27